Time;durP1;ratioP1;P1;durP2;ratioP2;P2;SDS_P1;SDS_P2;PMS_P1;PMS_P2;Temp;Humidity;BMP_temperature;BMP_pressure;BME280_temperature;BME280_humidity;BME280_pressure;Samples;Min_cycle;Max_cycle;Signal;HPM_P1;HPM_P2
2022/10/16 00:01:12;;;;;;;5.33;1.23;;;15.80;99.90;;;;;;4992337;28;20977;-73
2022/10/16 00:03:40;;;;;;;1.47;1.30;;;15.80;99.90;;;;;;5005595;28;20191;-74
2022/10/16 00:06:06;;;;;;;1.73;1.23;;;15.70;99.90;;;;;;4999195;28;20426;-73
2022/10/16 00:08:32;;;;;;;1.90;1.23;;;15.70;99.90;;;;;;4994132;28;20789;-74
2022/10/16 00:11:13;;;;;;;2.73;1.10;;;15.60;99.90;;;;;;4990075;28;20448;-75
2022/10/16 00:13:40;;;;;;;1.63;1.23;;;15.60;99.90;;;;;;4993731;28;20500;-74
2022/10/16 00:16:07;;;;;;;2.00;1.17;;;15.50;99.90;;;;;;4991586;28;20418;-73
2022/10/16 00:18:33;;;;;;;3.53;1.40;;;15.50;99.90;;;;;;5004474;28;20472;-73
2022/10/16 00:21:07;;;;;;;1.30;1.20;;;15.50;99.90;;;;;;4997538;28;20442;-73
2022/10/16 00:23:33;;;;;;;1.73;1.40;;;15.40;99.90;;;;;;4992479;28;20792;-74
2022/10/16 00:26:04;;;;;;;2.67;1.50;;;15.40;99.90;;;;;;4972651;28;20521;-74
2022/10/16 00:28:30;;;;;;;4.70;1.40;;;15.40;99.90;;;;;;5005855;28;20222;-73
2022/10/16 00:30:56;;;;;;;4.60;1.73;;;15.30;99.90;;;;;;4997804;28;20866;-73
2022/10/16 00:33:21;;;;;;;2.60;1.97;;;15.30;99.90;;;;;;4992380;28;20942;-73
2022/10/16 00:35:47;;;;;;;1.93;1.30;;;15.20;99.90;;;;;;4988697;28;20657;-73
2022/10/16 00:38:13;;;;;;;3.47;1.97;;;15.10;99.90;;;;;;5005460;28;20179;-73
2022/10/16 00:40:39;;;;;;;1.70;1.60;;;15.10;99.90;;;;;;4999563;28;20193;-73
2022/10/16 00:43:33;;;;;;;9.30;1.80;;;15.00;99.90;;;;;;4991562;28;20245;-73
2022/10/16 00:46:01;;;;;;;1.70;1.30;;;15.00;99.90;;;;;;4996354;28;20171;-73
2022/10/16 00:48:27;;;;;;;5.43;1.47;;;15.00;99.90;;;;;;4990904;28;20430;-73
2022/10/16 00:50:53;;;;;;;5.80;1.97;;;15.00;99.90;;;;;;5004129;28;20958;-73
2022/10/16 00:53:19;;;;;;;1.90;1.63;;;14.90;99.90;;;;;;5005117;28;20201;-74
2022/10/16 00:55:45;;;;;;;4.27;1.50;;;14.90;99.90;;;;;;4996598;28;20427;-73
2022/10/16 00:58:11;;;;;;;5.23;1.20;;;14.80;99.90;;;;;;4989869;28;20415;-73
2022/10/16 02:31:21;;;;;;;2.20;1.40;;;14.90;99.90;;;;;;5880140;22;20870;-71
2022/10/16 02:33:47;;;;;;;6.03;2.20;;;14.90;99.90;;;;;;5059280;28;20473;-71
2022/10/16 02:36:13;;;;;;;2.67;1.50;;;14.90;99.90;;;;;;5053098;28;20411;-73
2022/10/16 02:38:40;;;;;;;2.53;1.50;;;15.00;99.90;;;;;;5060245;28;20209;-73
2022/10/16 02:41:06;;;;;;;4.63;1.00;;;15.00;99.90;;;;;;5057762;28;20204;-73
2022/10/16 02:43:33;;;;;;;3.27;1.20;;;14.90;99.90;;;;;;5033903;28;20450;-73
2022/10/16 02:45:59;;;;;;;2.10;0.90;;;14.90;99.90;;;;;;5036535;28;20272;-72
2022/10/16 02:48:24;;;;;;;1.57;1.47;;;14.90;99.90;;;;;;5025054;28;20567;-73
2022/10/16 02:50:50;;;;;;;4.20;1.27;;;14.90;99.90;;;;;;5041582;28;20433;-73
2022/10/16 02:53:16;;;;;;;1.20;1.20;;;14.90;99.90;;;;;;5042921;28;20189;-73
2022/10/16 02:55:42;;;;;;;1.63;1.13;;;14.90;99.90;;;;;;5028118;28;20434;-73
2022/10/16 02:58:07;;;;;;;1.40;1.30;;;14.90;99.90;;;;;;5025359;28;20193;-73
2022/10/16 03:00:33;;;;;;;2.03;1.30;;;14.90;99.90;;;;;;5039923;28;20200;-71
2022/10/16 03:02:58;;;;;;;3.90;1.20;;;14.90;99.90;;;;;;5043912;28;20188;-73
2022/10/16 03:05:24;;;;;;;2.10;1.20;;;14.90;99.90;;;;;;5030131;28;20591;-73
2022/10/16 03:07:50;;;;;;;1.50;1.40;;;14.90;99.90;;;;;;5022186;28;20291;-73
2022/10/16 03:10:15;;;;;;;2.97;1.30;;;14.90;99.90;;;;;;5039116;28;20202;-73
2022/10/16 03:12:41;;;;;;;1.60;1.23;;;14.90;99.90;;;;;;5039825;28;20260;-73
2022/10/16 03:15:07;;;;;;;2.17;1.47;;;14.90;99.90;;;;;;5032463;28;20174;-73
2022/10/16 03:17:32;;;;;;;1.10;1.00;;;14.90;99.90;;;;;;5036545;28;20209;-73
2022/10/16 03:19:58;;;;;;;2.90;1.40;;;14.80;99.90;;;;;;5042898;28;20452;-73
2022/10/16 03:22:23;;;;;;;3.03;1.20;;;14.80;99.90;;;;;;5041981;28;20209;-73
2022/10/16 03:24:49;;;;;;;1.50;1.40;;;14.80;99.90;;;;;;5038449;28;20202;-73
2022/10/16 03:27:14;;;;;;;3.60;1.80;;;14.70;99.90;;;;;;5041991;28;20188;-73
2022/10/16 03:29:40;;;;;;;3.03;1.57;;;14.70;99.90;;;;;;5037196;28;20309;-73
2022/10/16 03:32:05;;;;;;;3.57;1.40;;;14.70;99.90;;;;;;5033852;28;20266;-73
2022/10/16 03:34:31;;;;;;;3.13;1.47;;;14.70;99.90;;;;;;5046391;28;20187;-73
2022/10/16 03:36:57;;;;;;;1.47;1.23;;;14.70;99.90;;;;;;5041666;28;20531;-73
2022/10/16 03:39:22;;;;;;;4.67;1.50;;;14.70;99.90;;;;;;5035631;28;20186;-73
2022/10/16 03:41:48;;;;;;;3.17;1.60;;;14.70;99.90;;;;;;5031611;28;20582;-73
2022/10/16 03:44:13;;;;;;;9.90;1.53;;;14.70;99.90;;;;;;5046207;28;20701;-73
2022/10/16 03:46:39;;;;;;;3.20;1.90;;;14.70;99.90;;;;;;5042991;28;20190;-73
2022/10/16 03:49:04;;;;;;;1.57;1.47;;;14.60;99.90;;;;;;5034469;28;20209;-73
2022/10/16 03:51:30;;;;;;;3.50;1.57;;;14.70;99.90;;;;;;5028989;28;20207;-73
2022/10/16 03:53:56;;;;;;;1.77;1.67;;;14.60;99.90;;;;;;5045534;28;20177;-73
2022/10/16 03:56:21;;;;;;;1.60;1.50;;;14.60;99.90;;;;;;5045876;28;20189;-73
2022/10/16 03:58:47;;;;;;;1.43;1.17;;;14.60;99.90;;;;;;5033126;28;20564;-73
2022/10/16 04:01:12;;;;;;;2.70;1.70;;;14.60;99.90;;;;;;5028448;28;20584;-73
2022/10/16 04:03:38;;;;;;;2.13;1.93;;;14.60;99.90;;;;;;5042648;28;20654;-73
2022/10/16 04:06:03;;;;;;;4.83;1.63;;;14.60;99.90;;;;;;5045534;28;20219;-73
2022/10/16 04:08:29;;;;;;;3.27;1.70;;;14.60;99.90;;;;;;5035394;28;20237;-73
2022/10/16 04:10:54;;;;;;;1.73;1.63;;;14.50;99.90;;;;;;5027184;28;20292;-73
2022/10/16 04:13:20;;;;;;;2.40;1.90;;;14.50;99.90;;;;;;5042106;28;20185;-73
2022/10/16 04:15:45;;;;;;;3.30;1.50;;;14.50;99.90;;;;;;5043551;28;20269;-73
2022/10/16 04:18:11;;;;;;;4.50;2.03;;;14.50;99.90;;;;;;5039659;28;20646;-73
2022/10/16 04:20:37;;;;;;;1.73;1.63;;;14.40;99.90;;;;;;5024462;28;20182;-73
2022/10/16 04:23:03;;;;;;;5.80;1.87;;;14.50;99.90;;;;;;5041956;28;20207;-73
2022/10/16 04:25:29;;;;;;;4.87;2.03;;;14.50;99.90;;;;;;5041942;28;20174;-73
2022/10/16 04:27:55;;;;;;;2.60;2.40;;;14.50;99.90;;;;;;5041314;28;20276;-74
2022/10/16 04:30:22;;;;;;;1.50;1.40;;;14.50;99.90;;;;;;5023814;28;20900;-74
2022/10/16 04:32:51;;;;;;;1.57;1.30;;;14.50;99.90;;;;;;5039861;28;20244;-73
2022/10/16 04:35:18;;;;;;;2.63;1.77;;;14.50;99.90;;;;;;5041602;28;20405;-73
2022/10/16 04:37:44;;;;;;;4.00;1.67;;;14.50;99.90;;;;;;5041872;28;20469;-73
2022/10/16 04:40:10;;;;;;;3.10;1.77;;;14.50;99.90;;;;;;5041295;28;20413;-73
2022/10/16 04:42:36;;;;;;;1.87;1.77;;;14.60;99.90;;;;;;5038151;28;20460;-73
2022/10/16 04:45:01;;;;;;;3.40;2.00;;;14.60;99.90;;;;;;5045209;28;20182;-73
2022/10/16 04:47:27;;;;;;;7.30;1.97;;;14.60;99.90;;;;;;5038183;28;20181;-73
2022/10/16 04:49:52;;;;;;;7.17;2.37;;;14.60;99.90;;;;;;5031144;28;20705;-74
2022/10/16 04:52:18;;;;;;;3.30;1.57;;;14.60;99.90;;;;;;5033178;28;20237;-73
2022/10/16 04:54:45;;;;;;;2.43;1.40;;;14.60;99.90;;;;;;5043666;28;20177;-73
2022/10/16 04:57:10;;;;;;;4.70;1.73;;;14.60;99.90;;;;;;5036661;28;20917;-73
2022/10/16 04:59:36;;;;;;;4.93;2.00;;;14.60;99.90;;;;;;5031505;28;20432;-72
2022/10/16 05:02:01;;;;;;;1.50;1.40;;;14.60;99.90;;;;;;5028581;28;20204;-73
2022/10/16 05:04:27;;;;;;;4.97;2.17;;;14.60;99.90;;;;;;5044732;28;20193;-73
2022/10/16 05:06:52;;;;;;;3.30;2.40;;;14.60;99.90;;;;;;5037459;28;20551;-73
2022/10/16 05:09:18;;;;;;;2.30;2.10;;;14.60;99.90;;;;;;5031212;28;20256;-74
2022/10/16 05:11:43;;;;;;;4.33;2.07;;;14.60;99.90;;;;;;5037059;28;20261;-73
2022/10/16 05:14:09;;;;;;;3.27;1.77;;;14.60;99.90;;;;;;5031524;28;20545;-73
2022/10/16 05:16:34;;;;;;;3.90;2.07;;;14.50;99.90;;;;;;5025923;28;20212;-73
2022/10/16 05:19:00;;;;;;;6.40;2.53;;;14.50;99.90;;;;;;5022773;28;20178;-72
2022/10/16 05:21:25;;;;;;;2.60;2.37;;;14.50;99.90;;;;;;5024923;28;20202;-73
2022/10/16 05:23:53;;;;;;;2.93;2.40;;;14.50;99.90;;;;;;5043105;28;20208;-73
2022/10/16 05:26:18;;;;;;;4.50;1.87;;;14.50;99.90;;;;;;5043588;28;20188;-73
2022/10/16 05:28:44;;;;;;;13.67;2.50;;;14.40;99.90;;;;;;5028335;28;20467;-73
2022/10/16 05:31:09;;;;;;;1.70;1.50;;;14.50;99.90;;;;;;5024367;28;20568;-73
2022/10/16 05:33:35;;;;;;;4.20;1.80;;;14.40;99.90;;;;;;5040587;28;20186;-73
2022/10/16 05:36:02;;;;;;;6.20;2.37;;;14.40;99.90;;;;;;5044579;28;20650;-73
2022/10/16 05:38:28;;;;;;;7.43;2.20;;;14.40;99.90;;;;;;5029076;28;20178;-73
2022/10/16 05:40:54;;;;;;;2.40;2.07;;;14.40;99.90;;;;;;5039554;28;20516;-73
2022/10/16 05:43:20;;;;;;;6.03;2.80;;;14.40;99.90;;;;;;5040446;28;20263;-73
2022/10/16 05:46:04;;;;;;;2.07;1.87;;;14.30;99.90;;;;;;5040911;28;20182;-73
2022/10/16 05:48:30;;;;;;;3.47;1.83;;;14.30;99.90;;;;;;5026215;28;20820;-72
2022/10/16 05:51:04;;;;;;;2.10;1.90;;;14.30;99.90;;;;;;5039681;28;20546;-71
2022/10/16 05:53:32;;;;;;;1.93;1.83;;;14.30;99.90;;;;;;5040711;28;20416;-71
2022/10/16 05:55:58;;;;;;;3.23;2.10;;;14.30;99.90;;;;;;5041393;28;20447;-72
2022/10/16 05:58:25;;;;;;;2.50;1.90;;;14.30;99.90;;;;;;5026742;28;20860;-71
2022/10/16 06:00:56;;;;;;;2.63;2.50;;;14.30;99.90;;;;;;5038526;28;20271;-71
2022/10/16 06:03:22;;;;;;;2.70;2.50;;;14.40;99.90;;;;;;5040049;28;20912;-72
2022/10/16 06:05:48;;;;;;;2.90;2.40;;;14.50;99.90;;;;;;5042633;28;20452;-71
2022/10/16 06:08:13;;;;;;;3.17;2.13;;;14.50;99.90;;;;;;5039883;28;20452;-72
2022/10/16 06:10:39;;;;;;;8.93;2.50;;;14.60;99.90;;;;;;5038430;28;20269;-71
2022/10/16 06:13:04;;;;;;;4.70;2.03;;;14.70;99.90;;;;;;5030807;28;20617;-71
2022/10/16 06:15:30;;;;;;;4.77;2.33;;;14.60;99.90;;;;;;5035191;28;20238;-72
2022/10/16 06:17:55;;;;;;;6.53;2.90;;;14.70;99.90;;;;;;5040521;28;20191;-71
2022/10/16 06:20:21;;;;;;;2.03;1.93;;;14.70;99.90;;;;;;5036883;28;20550;-71
2022/10/16 06:22:46;;;;;;;6.80;1.90;;;14.70;99.90;;;;;;5033001;28;20202;-71
2022/10/16 06:25:12;;;;;;;5.60;2.10;;;14.80;99.90;;;;;;5029999;28;20179;-72
2022/10/16 06:27:40;;;;;;;8.27;2.47;;;14.80;99.90;;;;;;5043111;28;20192;-69
2022/10/16 06:30:06;;;;;;;2.20;1.83;;;14.80;99.90;;;;;;5042405;28;20559;-69
2022/10/16 06:32:32;;;;;;;3.70;2.07;;;14.80;99.90;;;;;;5042990;28;20516;-69
2022/10/16 06:34:57;;;;;;;4.30;3.00;;;14.90;99.90;;;;;;5037077;28;20417;-70
2022/10/16 06:37:23;;;;;;;5.90;3.00;;;14.90;99.90;;;;;;5031443;28;20240;-71
2022/10/16 06:39:48;;;;;;;5.23;2.50;;;15.00;99.90;;;;;;5025800;28;20485;-68
2022/10/16 06:42:15;;;;;;;3.50;3.20;;;15.00;99.90;;;;;;5031020;28;20205;-69
2022/10/16 06:44:40;;;;;;;6.13;2.97;;;15.10;99.90;;;;;;5038179;28;20181;-69
2022/10/16 06:47:06;;;;;;;4.37;2.63;;;15.20;99.90;;;;;;5031208;28;20413;-69
2022/10/16 06:49:31;;;;;;;3.17;2.97;;;15.20;99.90;;;;;;5026073;28;20205;-68
2022/10/16 06:51:57;;;;;;;8.13;3.50;;;15.30;99.90;;;;;;5041739;28;20212;-68
2022/10/16 06:54:22;;;;;;;4.87;3.13;;;15.20;99.90;;;;;;5032992;28;20220;-68
2022/10/16 06:56:48;;;;;;;5.03;3.57;;;15.30;99.90;;;;;;5022457;28;20170;-68
2022/10/16 06:59:13;;;;;;;3.60;3.30;;;15.30;99.90;;;;;;5026270;28;20206;-68
2022/10/16 07:01:39;;;;;;;3.30;3.00;;;15.30;99.90;;;;;;5039347;28;20201;-69
2022/10/16 07:04:05;;;;;;;3.43;3.13;;;15.30;99.90;;;;;;5042691;28;20188;-70
2022/10/16 07:06:33;;;;;;;2.30;2.20;;;15.40;99.90;;;;;;5032994;28;20193;-69
2022/10/16 07:09:02;;;;;;;3.43;2.67;;;15.50;99.90;;;;;;5024685;28;20704;-69
2022/10/16 07:11:28;;;;;;;17.00;3.80;;;15.50;99.90;;;;;;5038831;28;20429;-69
2022/10/16 07:13:53;;;;;;;3.13;2.30;;;15.60;99.90;;;;;;5041630;28;20443;-69
2022/10/16 07:16:21;;;;;;;3.43;2.30;;;15.70;99.90;;;;;;5035052;28;20174;-69
2022/10/16 07:18:48;;;;;;;5.07;2.07;;;15.80;99.90;;;;;;5038820;28;20197;-69
2022/10/16 07:21:22;;;;;;;6.50;2.80;;;15.90;99.90;;;;;;5035935;28;20477;-70
2022/10/16 07:23:51;;;;;;;6.70;2.40;;;16.00;99.90;;;;;;5022923;28;20453;-71
2022/10/16 07:26:18;;;;;;;2.93;2.50;;;16.00;99.90;;;;;;5038994;28;20420;-71
2022/10/16 07:28:43;;;;;;;4.00;2.53;;;16.00;99.90;;;;;;5040277;28;20862;-71
2022/10/16 07:31:11;;;;;;;3.20;2.30;;;16.00;99.90;;;;;;5037006;28;20439;-72
2022/10/16 07:33:39;;;;;;;2.90;2.40;;;16.00;99.90;;;;;;5021602;28;20217;-71
2022/10/16 07:36:05;;;;;;;3.63;2.33;;;16.00;99.90;;;;;;5038698;28;20478;-71
2022/10/16 07:38:30;;;;;;;2.40;1.70;;;16.00;99.90;;;;;;5038915;28;20925;-71
2022/10/16 07:41:07;;;;;;;4.07;2.17;;;16.00;99.90;;;;;;5036415;28;20452;-71
2022/10/16 07:43:33;;;;;;;10.70;2.00;;;16.00;99.90;;;;;;5035441;28;20188;-70
2022/10/16 07:45:59;;;;;;;3.07;2.47;;;16.00;99.90;;;;;;5038102;28;20407;-70
2022/10/16 07:48:28;;;;;;;2.97;2.23;;;16.00;99.90;;;;;;5021140;28;20449;-71
2022/10/16 07:51:00;;;;;;;6.27;2.40;;;16.10;99.90;;;;;;5034089;28;20471;-70
2022/10/16 07:53:26;;;;;;;6.33;2.73;;;16.10;99.90;;;;;;5020932;28;20465;-71
2022/10/16 07:55:52;;;;;;;2.67;2.53;;;16.20;99.90;;;;;;5037583;28;20418;-70
2022/10/16 07:58:17;;;;;;;5.70;2.30;;;16.30;99.90;;;;;;5038795;28;20432;-71
2022/10/16 08:00:43;;;;;;;7.77;2.83;;;16.30;99.90;;;;;;5035500;28;20421;-72
2022/10/16 08:03:08;;;;;;;2.13;2.03;;;16.40;99.90;;;;;;5025248;28;20236;-72
2022/10/16 08:05:34;;;;;;;2.33;1.40;;;16.50;99.90;;;;;;5037444;28;20231;-72
2022/10/16 08:08:02;;;;;;;1.87;1.77;;;16.60;99.90;;;;;;5042535;28;20201;-71
2022/10/16 08:10:28;;;;;;;5.20;1.57;;;16.70;99.90;;;;;;5037755;28;20235;-72
2022/10/16 08:12:54;;;;;;;1.67;1.57;;;16.80;99.90;;;;;;5032777;28;20493;-71
2022/10/16 08:15:20;;;;;;;4.37;2.03;;;17.00;99.90;;;;;;5038045;28;20964;-71
2022/10/16 08:17:58;;;;;;;5.73;1.60;;;17.20;99.90;;;;;;5032804;28;20595;-71
2022/10/16 08:20:23;;;;;;;3.50;1.80;;;17.30;99.90;;;;;;5035103;28;20462;-71
2022/10/16 08:22:49;;;;;;;4.20;2.10;;;17.40;99.90;;;;;;5043533;28;20443;-71
2022/10/16 08:25:14;;;;;;;2.20;2.10;;;17.60;99.90;;;;;;5037627;28;20174;-71
2022/10/16 08:27:40;;;;;;;2.90;1.83;;;17.80;99.90;;;;;;5033146;28;20586;-71
2022/10/16 08:30:06;;;;;;;6.13;2.00;;;18.00;99.90;;;;;;5029630;28;20202;-72
2022/10/16 08:32:32;;;;;;;6.67;1.97;;;18.30;99.90;;;;;;5031737;28;20279;-71
2022/10/16 08:34:57;;;;;;;2.57;1.47;;;18.50;99.90;;;;;;5029471;28;20408;-70
2022/10/16 08:37:23;;;;;;;1.83;1.60;;;18.70;99.90;;;;;;5038782;28;20534;-71
2022/10/16 08:39:48;;;;;;;2.30;1.50;;;18.80;99.90;;;;;;5028289;28;20655;-71
2022/10/16 08:42:31;;;;;;;2.33;1.40;;;18.90;99.90;;;;;;5044769;28;20693;-71
2022/10/16 08:45:10;;;;;;;1.50;1.10;;;18.90;99.90;;;;;;5037721;28;20247;-71
2022/10/16 08:47:45;;;;;;;3.00;1.70;;;18.90;99.90;;;;;;5031472;28;20413;-71
2022/10/16 08:50:27;;;;;;;4.60;1.50;;;18.90;99.90;;;;;;5029620;28;20551;-72
2022/10/16 08:52:54;;;;;;;1.80;1.37;;;18.90;99.90;;;;;;5028981;28;20432;-71
2022/10/16 08:55:40;;;;;;;1.60;1.47;;;19.00;99.90;;;;;;5033755;28;20821;-70
2022/10/16 08:58:30;;;;;;;3.43;1.47;;;18.90;99.90;;;;;;5039263;28;20415;-71
2022/10/16 09:01:02;;;;;;;3.73;1.47;;;18.90;99.90;;;;;;5034644;28;20452;-70
2022/10/16 09:03:47;;;;;;;1.60;1.50;;;18.90;99.90;;;;;;5035762;28;20928;-71
2022/10/16 09:06:23;;;;;;;1.30;1.20;;;18.90;99.90;;;;;;5037221;28;20655;-70
2022/10/16 09:08:57;;;;;;;6.67;1.40;;;19.00;99.90;;;;;;5042728;28;20984;-70
2022/10/16 09:11:35;;;;;;;6.00;1.00;;;19.10;99.90;;;;;;5030950;28;20441;-70
2022/10/16 09:14:10;;;;;;;3.20;1.10;;;19.10;99.90;;;;;;5040985;28;20412;-70
2022/10/16 09:16:42;;;;;;;1.37;1.20;;;19.20;99.90;;;;;;5040935;28;20499;-70
2022/10/16 09:19:08;;;;;;;2.53;1.10;;;19.40;99.90;;;;;;5044201;28;20511;-70
2022/10/16 09:21:43;;;;;;;3.50;1.40;;;19.60;99.90;;;;;;5027264;28;20477;-71
2022/10/16 09:24:18;;;;;;;3.23;1.03;;;19.70;99.90;;;;;;5034120;28;20261;-71
2022/10/16 09:26:44;;;;;;;3.17;0.90;;;20.00;99.90;;;;;;5039867;28;20435;-71
2022/10/16 09:29:13;;;;;;;4.63;1.47;;;20.10;99.90;;;;;;5042942;28;20475;-71
2022/10/16 09:31:39;;;;;;;2.73;1.20;;;20.20;99.90;;;;;;5037925;28;20452;-71
2022/10/16 09:34:10;;;;;;;1.63;1.20;;;20.20;99.90;;;;;;5042496;28;20838;-71
2022/10/16 09:36:43;;;;;;;2.40;1.00;;;20.30;99.90;;;;;;5037431;28;20416;-71
2022/10/16 09:39:11;;;;;;;2.07;1.50;;;20.30;99.90;;;;;;5042151;28;20422;-70
2022/10/16 09:41:43;;;;;;;3.20;1.10;;;20.30;99.90;;;;;;5037099;28;20456;-70
2022/10/16 09:44:35;;;;;;;0.90;0.77;;;20.30;99.90;;;;;;5046467;28;20479;-70
2022/10/16 09:47:05;;;;;;;2.00;0.90;;;20.30;99.90;;;;;;5041709;28;20427;-71
2022/10/16 09:49:31;;;;;;;1.30;1.20;;;20.20;99.90;;;;;;5034355;28;20477;-70
2022/10/16 09:52:10;;;;;;;1.27;1.00;;;20.20;99.90;;;;;;5025703;28;21025;-71
2022/10/16 09:54:36;;;;;;;5.60;1.17;;;20.30;99.90;;;;;;5040310;28;20921;-71
2022/10/16 09:57:13;;;;;;;2.50;1.13;;;20.50;99.90;;;;;;5043752;28;20473;-71
2022/10/16 09:59:49;;;;;;;2.97;1.40;;;20.80;99.90;;;;;;5031995;28;20182;-71
2022/10/16 10:02:18;;;;;;;5.73;1.23;;;21.00;99.90;;;;;;5025773;28;20818;-71
2022/10/16 10:04:53;;;;;;;5.00;3.63;;;21.20;99.90;;;;;;5041206;28;20515;-71
2022/10/16 10:07:25;;;;;;;2.60;1.90;;;21.30;99.90;;;;;;5043370;28;20786;-71
2022/10/16 10:09:51;;;;;;;2.50;1.13;;;21.30;99.90;;;;;;5040878;28;20836;-71
2022/10/16 10:12:23;;;;;;;1.70;1.17;;;21.30;99.90;;;;;;5042999;28;20451;-71
2022/10/16 10:14:54;;;;;;;3.53;1.03;;;21.30;99.90;;;;;;5029710;28;20190;-71
2022/10/16 10:17:22;;;;;;;1.77;1.37;;;21.50;99.90;;;;;;5025822;28;20441;-72
2022/10/16 10:19:50;;;;;;;3.20;1.00;;;21.70;99.90;;;;;;5042067;28;20535;-71
2022/10/16 10:22:45;;;;;;;1.53;1.00;;;21.80;99.90;;;;;;5043546;28;20455;-71
2022/10/16 10:25:37;;;;;;;1.73;1.10;;;21.90;99.90;;;;;;5043820;28;20947;-70
2022/10/16 10:28:08;;;;;;;4.50;1.00;;;22.10;99.90;;;;;;5034411;28;20424;-71
2022/10/16 10:30:57;;;;;;;5.87;1.37;;;22.00;99.90;;;;;;5029926;28;20472;-71
2022/10/16 10:33:42;;;;;;;1.87;1.10;;;22.10;99.90;;;;;;5030458;28;20781;-71
2022/10/16 10:36:30;;;;;;;4.77;1.00;;;22.30;99.90;;;;;;5037262;28;20500;-71
2022/10/16 10:38:58;;;;;;;3.20;1.13;;;22.50;99.90;;;;;;5037187;28;20487;-71
2022/10/16 10:41:29;;;;;;;1.23;1.13;;;22.80;99.90;;;;;;5033972;28;20933;-71
2022/10/16 10:44:01;;;;;;;2.30;1.20;;;22.90;99.90;;;;;;5039446;28;20456;-71
2022/10/16 10:46:38;;;;;;;1.57;1.47;;;22.80;99.90;;;;;;5034730;28;20428;-71
2022/10/16 10:49:19;;;;;;;8.50;1.40;;;23.00;99.90;;;;;;5026550;28;20480;-69
2022/10/16 10:52:09;;;;;;;2.20;1.40;;;23.00;99.90;;;;;;5031949;28;20440;-69
2022/10/16 10:54:37;;;;;;;2.10;1.30;;;23.10;99.90;;;;;;5027944;28;20416;-69
2022/10/16 10:57:14;;;;;;;10.00;1.40;;;23.20;99.90;;;;;;5015416;28;20599;-69
2022/10/16 11:00:17;;;;;;;1.90;1.10;;;23.10;99.90;;;;;;5039682;28;20424;-69
2022/10/16 11:02:53;;;;;;;10.90;1.40;;;23.10;99.90;;;;;;5035887;28;20464;-70
2022/10/16 11:05:42;;;;;;;5.13;1.57;;;23.00;99.90;;;;;;5027940;28;20427;-70
2022/10/16 11:08:13;;;;;;;3.73;1.27;;;23.00;99.90;;;;;;5032995;28;20913;-68
2022/10/16 11:10:59;;;;;;;3.40;1.20;;;22.90;99.90;;;;;;5026070;28;20468;-68
2022/10/16 11:13:42;;;;;;;2.13;1.00;;;22.90;99.90;;;;;;5027999;28;20425;-69
2022/10/16 11:16:34;;;;;;;3.43;0.93;;;22.90;99.90;;;;;;5035142;28;20409;-69
2022/10/16 11:19:21;;;;;;;3.80;1.17;;;23.20;99.90;;;;;;5030773;28;20519;-70
2022/10/16 11:22:01;;;;;;;2.00;1.00;;;23.70;99.90;;;;;;5037791;28;20530;-69
2022/10/16 11:24:53;;;;;;;6.23;1.20;;;24.10;99.90;;;;;;5034790;28;20416;-68
2022/10/16 11:27:27;;;;;;;1.63;0.87;;;24.20;99.90;;;;;;5037680;28;20979;-69
2022/10/16 11:29:58;;;;;;;2.20;1.03;;;24.30;99.90;;;;;;5032216;28;20576;-69
2022/10/16 11:32:40;;;;;;;1.90;1.03;;;24.30;99.90;;;;;;5026332;28;20579;-70
2022/10/16 11:35:18;;;;;;;6.20;1.20;;;24.30;99.90;;;;;;5028729;28;20455;-68
2022/10/16 11:37:46;;;;;;;3.83;1.43;;;24.40;99.90;;;;;;5031172;28;20905;-69
2022/10/16 11:40:37;;;;;;;4.70;1.00;;;24.30;99.90;;;;;;5029718;28;20455;-68
2022/10/16 11:43:40;;;;;;;1.53;1.20;;;24.30;99.90;;;;;;5029991;28;20420;-69
2022/10/16 11:46:16;;;;;;;1.40;0.93;;;24.40;99.90;;;;;;5023075;28;20511;-69
2022/10/16 11:49:11;;;;;;;2.30;1.00;;;24.60;99.90;;;;;;5043395;28;20463;-70
2022/10/16 11:51:57;;;;;;;1.53;1.10;;;24.60;99.90;;;;;;5030383;28;20436;-69
2022/10/16 11:54:36;;;;;;;4.63;0.80;;;24.60;99.90;;;;;;5036598;28;20412;-70
2022/10/16 11:57:10;;;;;;;2.33;0.80;;;24.60;99.90;;;;;;5039367;28;20423;-67
2022/10/16 11:59:49;;;;;;;6.27;1.57;;;24.90;99.90;;;;;;5036381;28;20417;-69
2022/10/16 12:02:52;;;;;;;3.73;1.00;;;25.10;99.90;;;;;;5038092;28;20462;-69
2022/10/16 12:05:29;;;;;;;3.53;1.27;;;25.00;99.90;;;;;;4982513;28;20434;-67
2022/10/16 12:08:11;;;;;;;3.27;1.10;;;25.10;99.90;;;;;;5048034;28;20804;-72
2022/10/16 12:10:39;;;;;;;1.63;1.07;;;25.10;99.90;;;;;;5039877;28;20451;-72
2022/10/16 12:13:24;;;;;;;6.10;1.10;;;24.90;99.90;;;;;;5027794;28;20499;-72
2022/10/16 12:15:50;;;;;;;2.03;1.17;;;24.50;99.90;;;;;;5032317;28;20439;-73
2022/10/16 12:18:23;;;;;;;2.47;1.07;;;24.40;99.90;;;;;;5043389;28;20413;-73
2022/10/16 12:20:58;;;;;;;1.20;0.93;;;24.20;99.90;;;;;;5045829;28;20240;-73
2022/10/16 12:23:25;;;;;;;1.30;0.80;;;24.00;99.90;;;;;;5047178;28;20447;-73
2022/10/16 12:25:59;;;;;;;2.87;1.13;;;23.90;99.90;;;;;;5042420;28;20413;-73
2022/10/16 12:28:30;;;;;;;5.70;0.90;;;23.80;99.90;;;;;;5042145;28;20461;-73
2022/10/16 12:30:56;;;;;;;3.20;1.23;;;23.80;99.90;;;;;;5029497;28;20444;-72
2022/10/16 12:33:25;;;;;;;2.50;1.20;;;23.80;99.90;;;;;;5034674;28;20435;-73
2022/10/16 12:35:51;;;;;;;1.60;1.40;;;23.80;99.90;;;;;;5035965;28;20474;-73
2022/10/16 12:38:25;;;;;;;1.10;1.00;;;23.80;99.90;;;;;;5042373;28;20940;-73
2022/10/16 12:41:00;;;;;;;1.00;0.80;;;23.90;99.90;;;;;;5037284;28;20766;-72
2022/10/16 12:43:44;;;;;;;1.47;1.00;;;24.00;99.90;;;;;;5043470;28;20936;-74
2022/10/16 12:46:09;;;;;;;1.43;0.90;;;23.90;99.90;;;;;;5016856;28;20793;-73
2022/10/16 12:48:36;;;;;;;6.90;0.97;;;23.90;99.90;;;;;;5034806;28;20422;-72
2022/10/16 12:51:12;;;;;;;1.03;1.00;;;23.70;99.90;;;;;;5037599;28;20197;-72
2022/10/16 12:53:38;;;;;;;0.90;0.90;;;23.60;99.90;;;;;;5045443;28;20420;-72
2022/10/16 12:56:23;;;;;;;2.77;1.37;;;23.40;99.90;;;;;;5046913;28;20553;-73
2022/10/16 12:59:31;;;;;;;1.63;1.10;;;23.40;99.90;;;;;;5041966;28;20185;-73
2022/10/16 13:02:07;;;;;;;1.40;1.30;;;23.30;99.90;;;;;;5041476;28;20775;-73
2022/10/16 13:04:56;;;;;;;1.60;1.30;;;23.30;99.90;;;;;;5044893;28;20936;-72
2022/10/16 13:07:56;;;;;;;2.80;1.03;;;23.30;99.90;;;;;;5031981;28;20416;-73
2022/10/16 13:10:28;;;;;;;2.33;1.10;;;23.20;99.90;;;;;;5032920;28;20456;-71
2022/10/16 13:13:31;;;;;;;1.67;1.07;;;23.20;99.90;;;;;;5041884;28;20439;-73
2022/10/16 13:16:02;;;;;;;1.13;0.90;;;23.20;99.90;;;;;;5023678;28;20469;-73
2022/10/16 13:18:46;;;;;;;2.03;1.07;;;23.30;99.90;;;;;;5044883;28;20456;-72
2022/10/16 13:21:52;;;;;;;2.20;1.17;;;23.40;99.90;;;;;;5038890;28;20447;-72
2022/10/16 13:24:23;;;;;;;0.93;0.93;;;23.40;99.90;;;;;;5025386;28;20452;-72
2022/10/16 13:27:12;;;;;;;1.83;1.13;;;23.40;99.90;;;;;;5035294;28;20520;-73
2022/10/16 13:29:41;;;;;;;3.20;1.17;;;23.40;99.90;;;;;;5032053;28;21047;-72
2022/10/16 13:32:12;;;;;;;2.93;1.50;;;23.40;99.90;;;;;;5033068;28;20448;-72
2022/10/16 13:34:48;;;;;;;2.13;1.57;;;23.30;99.90;;;;;;5044735;28;20415;-73
2022/10/16 13:37:22;;;;;;;5.00;1.37;;;23.40;99.90;;;;;;5022938;28;20766;-73
2022/10/16 13:39:50;;;;;;;4.20;1.03;;;23.30;99.90;;;;;;5043935;28;20420;-73
2022/10/16 13:42:25;;;;;;;2.60;1.50;;;23.30;99.90;;;;;;5044279;28;20483;-73
2022/10/16 13:44:52;;;;;;;2.47;1.70;;;23.40;99.90;;;;;;5041653;28;20444;-72
2022/10/16 13:47:20;;;;;;;4.10;1.10;;;23.50;99.90;;;;;;5044182;28;20554;-70
2022/10/16 13:49:46;;;;;;;3.10;1.40;;;23.50;99.90;;;;;;5043185;28;20467;-73
2022/10/16 13:52:21;;;;;;;4.47;1.33;;;23.50;99.90;;;;;;5027970;28;20436;-69
2022/10/16 13:54:47;;;;;;;1.40;1.23;;;23.40;99.90;;;;;;5030761;28;20456;-70
2022/10/16 13:57:16;;;;;;;2.38;1.65;;;23.50;99.90;;;;;;5030767;28;20498;-70
2022/10/16 13:59:43;;;;;;;4.63;0.97;;;23.50;99.90;;;;;;5032471;28;20189;-69
2022/10/16 14:02:34;;;;;;;2.10;1.57;;;23.40;99.90;;;;;;5037673;28;20457;-69
2022/10/16 14:05:02;;;;;;;2.60;1.50;;;23.30;99.90;;;;;;5009075;28;20421;-69
2022/10/16 14:07:31;;;;;;;1.43;1.33;;;23.30;99.90;;;;;;5031360;28;20474;-70
2022/10/16 14:10:01;;;;;;;1.10;1.00;;;23.20;99.90;;;;;;5034435;28;20472;-67
2022/10/16 14:12:27;;;;;;;4.80;1.30;;;23.20;99.90;;;;;;5034964;28;20494;-69
2022/10/16 14:14:54;;;;;;;1.90;1.40;;;23.20;99.90;;;;;;5040817;28;20459;-69
2022/10/16 14:17:25;;;;;;;1.57;1.20;;;23.10;99.90;;;;;;5032678;28;20667;-68
2022/10/16 14:19:54;;;;;;;3.43;1.67;;;23.10;99.90;;;;;;5022184;28;20782;-69
2022/10/16 14:22:39;;;;;;;4.17;1.57;;;23.30;99.90;;;;;;5039504;28;20495;-70
2022/10/16 14:25:20;;;;;;;1.63;1.53;;;23.30;99.90;;;;;;5015636;28;20421;-69
2022/10/16 14:28:03;;;;;;;1.20;1.20;;;23.30;99.90;;;;;;5038655;28;20787;-68
2022/10/16 14:30:30;;;;;;;2.30;1.37;;;23.20;99.90;;;;;;5040403;28;20554;-70
2022/10/16 14:32:58;;;;;;;2.97;2.60;;;23.30;99.90;;;;;;5027270;28;20909;-71
2022/10/16 14:35:32;;;;;;;2.70;1.80;;;23.30;99.90;;;;;;5045311;28;20839;-70